sensor_id;sensor_type;location;lat;lon;timestamp;pressure;altitude;pressure_sealevel;temperature;humidity
21730;BME280;11027;51.030;13.812;2023-09-19T00:02:16;99473.59;;;19.00;89.10
21730;BME280;11027;51.030;13.812;2023-09-19T00:04:42;99475.94;;;18.91;89.81
21730;BME280;11027;51.030;13.812;2023-09-19T00:07:08;99473.09;;;18.86;89.89
21730;BME280;11027;51.030;13.812;2023-09-19T00:09:34;99473.97;;;18.87;90.00
21730;BME280;11027;51.030;13.812;2023-09-19T00:12:06;99471.78;;;18.89;89.62
21730;BME280;11027;51.030;13.812;2023-09-19T00:14:32;99483.13;;;18.92;89.57
21730;BME280;11027;51.030;13.812;2023-09-19T00:17:01;99464.91;;;18.91;89.43
21730;BME280;11027;51.030;13.812;2023-09-19T00:19:31;99474.84;;;18.92;89.51
21730;BME280;11027;51.030;13.812;2023-09-19T00:21:57;99475.38;;;18.89;89.07
21730;BME280;11027;51.030;13.812;2023-09-19T00:24:23;99470.91;;;18.88;89.30
21730;BME280;11027;51.030;13.812;2023-09-19T00:26:48;99471.50;;;18.90;89.48
21730;BME280;11027;51.030;13.812;2023-09-19T00:29:13;99475.94;;;18.91;89.16
21730;BME280;11027;51.030;13.812;2023-09-19T00:31:43;99470.91;;;18.88;89.32
21730;BME280;11027;51.030;13.812;2023-09-19T00:34:08;99471.19;;;18.87;89.22
21730;BME280;11027;51.030;13.812;2023-09-19T00:36:35;99462.25;;;18.79;89.56
21730;BME280;11027;51.030;13.812;2023-09-19T00:39:01;99454.69;;;18.75;90.03
21730;BME280;11027;51.030;13.812;2023-09-19T00:41:28;99457.34;;;18.70;90.07
21730;BME280;11027;51.030;13.812;2023-09-19T00:43:55;99452.94;;;18.69;90.26
21730;BME280;11027;51.030;13.812;2023-09-19T00:46:20;99456.78;;;18.68;90.38
21730;BME280;11027;51.030;13.812;2023-09-19T00:48:46;99461.22;;;18.69;90.38
21730;BME280;11027;51.030;13.812;2023-09-19T00:51:11;99453.44;;;18.66;90.80
21730;BME280;11027;51.030;13.812;2023-09-19T00:53:39;99455.13;;;18.67;90.98
21730;BME280;11027;51.030;13.812;2023-09-19T00:56:07;99460.94;;;18.70;90.67
21730;BME280;11027;51.030;13.812;2023-09-19T00:58:33;99456.53;;;18.69;90.73
21730;BME280;11027;51.030;13.812;2023-09-19T01:01:01;99448.25;;;18.69;91.04
21730;BME280;11027;51.030;13.812;2023-09-19T01:03:27;99442.16;;;18.67;91.13
21730;BME280;11027;51.030;13.812;2023-09-19T01:05:53;99448.50;;;18.68;91.04
21730;BME280;11027;51.030;13.812;2023-09-19T01:08:18;99454.00;;;18.68;90.78
21730;BME280;11027;51.030;13.812;2023-09-19T01:10:58;99452.34;;;18.67;90.60
21730;BME280;11027;51.030;13.812;2023-09-19T01:13:36;99455.13;;;18.67;91.00
21730;BME280;11027;51.030;13.812;2023-09-19T01:16:14;99455.03;;;18.62;90.98
21730;BME280;11027;51.030;13.812;2023-09-19T01:22:16;99472.56;;;18.55;91.15
21730;BME280;11027;51.030;13.812;2023-09-19T01:27:46;99482.94;;;18.48;90.98
21730;BME280;11027;51.030;13.812;2023-09-19T01:30:21;99465.22;;;18.44;91.21
21730;BME280;11027;51.030;13.812;2023-09-19T01:32:50;99477.91;;;18.45;91.36
21730;BME280;11027;51.030;13.812;2023-09-19T01:35:17;99483.44;;;18.45;91.45
21730;BME280;11027;51.030;13.812;2023-09-19T01:37:44;99479.25;;;18.43;91.74
21730;BME280;11027;51.030;13.812;2023-09-19T01:40:12;99473.16;;;18.41;91.64
21730;BME280;11027;51.030;13.812;2023-09-19T01:45:57;99482.84;;;18.43;91.62
21730;BME280;11027;51.030;13.812;2023-09-19T01:49:03;99472.91;;;18.42;91.29
21730;BME280;11027;51.030;13.812;2023-09-19T01:51:39;99483.94;;;18.42;91.09
21730;BME280;11027;51.030;13.812;2023-09-19T01:54:11;99469.06;;;18.43;91.23
21730;BME280;11027;51.030;13.812;2023-09-19T01:56:49;99470.75;;;18.44;91.05
21730;BME280;11027;51.030;13.812;2023-09-19T01:59:25;99477.91;;;18.45;90.93
21730;BME280;11027;51.030;13.812;2023-09-19T02:01:54;99478.75;;;18.46;91.07
21730;BME280;11027;51.030;13.812;2023-09-19T02:04:20;99486.44;;;18.44;91.09
21730;BME280;11027;51.030;13.812;2023-09-19T02:06:45;99489.69;;;18.41;91.50
21730;BME280;11027;51.030;13.812;2023-09-19T02:09:13;99494.38;;;18.40;91.57
21730;BME280;11027;51.030;13.812;2023-09-19T02:11:39;99496.78;;;18.36;91.42
21730;BME280;11027;51.030;13.812;2023-09-19T02:14:04;99494.28;;;18.35;91.59
21730;BME280;11027;51.030;13.812;2023-09-19T02:16:33;99500.28;;;18.32;91.64
21730;BME280;11027;51.030;13.812;2023-09-19T02:18:58;99493.59;;;18.28;91.61
21730;BME280;11027;51.030;13.812;2023-09-19T02:21:25;99502.38;;;18.25;92.02
21730;BME280;11027;51.030;13.812;2023-09-19T02:23:50;99507.28;;;18.23;91.66
21730;BME280;11027;51.030;13.812;2023-09-19T02:26:16;99500.59;;;18.18;91.71
21730;BME280;11027;51.030;13.812;2023-09-19T02:28:43;99499.78;;;18.18;92.31
21730;BME280;11027;51.030;13.812;2023-09-19T02:31:11;99507.78;;;18.19;91.88
21730;BME280;11027;51.030;13.812;2023-09-19T02:33:36;99510.63;;;18.25;91.72
21730;BME280;11027;51.030;13.812;2023-09-19T02:36:02;99508.94;;;18.24;91.65
21730;BME280;11027;51.030;13.812;2023-09-19T02:38:30;99508.94;;;18.24;91.42
21730;BME280;11027;51.030;13.812;2023-09-19T02:40:56;99516.16;;;18.25;91.30
21730;BME280;11027;51.030;13.812;2023-09-19T02:43:22;99514.47;;;18.24;91.70
21730;BME280;11027;51.030;13.812;2023-09-19T02:45:48;99518.31;;;18.23;91.92
21730;BME280;11027;51.030;13.812;2023-09-19T02:48:18;99521.31;;;18.21;91.67
21730;BME280;11027;51.030;13.812;2023-09-19T02:50:44;99523.25;;;18.21;91.91
21730;BME280;11027;51.030;13.812;2023-09-19T02:53:10;99526.00;;;18.21;91.55
21730;BME280;11027;51.030;13.812;2023-09-19T02:55:38;99514.97;;;18.21;91.78
21730;BME280;11027;51.030;13.812;2023-09-19T02:58:06;99521.56;;;18.19;91.62
21730;BME280;11027;51.030;13.812;2023-09-19T03:00:36;99517.13;;;18.18;91.79
21730;BME280;11027;51.030;13.812;2023-09-19T03:03:02;99522.91;;;18.17;91.59
21730;BME280;11027;51.030;13.812;2023-09-19T03:05:27;99527.81;;;18.15;91.50
21730;BME280;11027;51.030;13.812;2023-09-19T03:07:56;99530.81;;;18.13;91.50
21730;BME280;11027;51.030;13.812;2023-09-19T03:10:22;99538.50;;;18.11;92.14
21730;BME280;11027;51.030;13.812;2023-09-19T03:12:49;99542.34;;;18.10;92.19
21730;BME280;11027;51.030;13.812;2023-09-19T03:15:15;99543.16;;;18.11;91.81
21730;BME280;11027;51.030;13.812;2023-09-19T03:17:46;99533.25;;;18.10;91.69
21730;BME280;11027;51.030;13.812;2023-09-19T03:20:12;99536.25;;;18.08;91.74
21730;BME280;11027;51.030;13.812;2023-09-19T03:22:39;99540.66;;;18.09;91.23
21730;BME280;11027;51.030;13.812;2023-09-19T03:25:07;99562.72;;;18.09;91.06
21730;BME280;11027;51.030;13.812;2023-09-19T03:27:36;99557.69;;;18.06;91.47
21730;BME280;11027;51.030;13.812;2023-09-19T03:30:02;99558.75;;;18.05;91.33
21730;BME280;11027;51.030;13.812;2023-09-19T03:32:31;99554.34;;;18.04;91.56
21730;BME280;11027;51.030;13.812;2023-09-19T03:34:57;99554.81;;;18.01;91.47
21730;BME280;11027;51.030;13.812;2023-09-19T03:37:22;99557.56;;;18.01;91.71
21730;BME280;11027;51.030;13.812;2023-09-19T03:39:47;99560.34;;;18.01;91.50
21730;BME280;11027;51.030;13.812;2023-09-19T03:42:13;99554.59;;;18.03;91.33
21730;BME280;11027;51.030;13.812;2023-09-19T03:44:38;99552.66;;;18.03;90.74
21730;BME280;11027;51.030;13.812;2023-09-19T03:47:03;99557.34;;;18.03;90.63
21730;BME280;11027;51.030;13.812;2023-09-19T03:49:29;99561.16;;;18.02;90.77
21730;BME280;11027;51.030;13.812;2023-09-19T03:51:55;99554.81;;;18.01;89.49
21730;BME280;11027;51.030;13.812;2023-09-19T03:54:21;99562.38;;;18.06;89.00
21730;BME280;11027;51.030;13.812;2023-09-19T03:56:46;99563.22;;;18.06;88.96
21730;BME280;11027;51.030;13.812;2023-09-19T03:59:11;99552.19;;;18.06;88.66
21730;BME280;11027;51.030;13.812;2023-09-19T04:01:37;99556.50;;;18.02;87.96
21730;BME280;11027;51.030;13.812;2023-09-19T04:04:03;99566.19;;;18.05;87.52
21730;BME280;11027;51.030;13.812;2023-09-19T04:06:36;99575.88;;;18.07;87.31
21730;BME280;11027;51.030;13.812;2023-09-19T04:09:05;99569.91;;;18.10;87.01
21730;BME280;11027;51.030;13.812;2023-09-19T04:11:32;99568.56;;;18.13;86.92
21730;BME280;11027;51.030;13.812;2023-09-19T04:13:58;99569.41;;;18.13;86.63
21730;BME280;11027;51.030;13.812;2023-09-19T04:16:23;99572.75;;;18.15;86.80
21730;BME280;11027;51.030;13.812;2023-09-19T04:18:48;99580.53;;;18.18;86.47
21730;BME280;11027;51.030;13.812;2023-09-19T04:21:14;99585.47;;;18.16;86.42
21730;BME280;11027;51.030;13.812;2023-09-19T04:23:39;99579.94;;;18.16;86.19
21730;BME280;11027;51.030;13.812;2023-09-19T04:26:04;99578.84;;;18.17;86.48
21730;BME280;11027;51.030;13.812;2023-09-19T04:28:30;99582.47;;;18.18;86.30
21730;BME280;11027;51.030;13.812;2023-09-19T04:30:56;99572.50;;;18.17;86.38
21730;BME280;11027;51.030;13.812;2023-09-19T04:33:22;99574.44;;;18.16;86.40
21730;BME280;11027;51.030;13.812;2023-09-19T04:35:51;99579.59;;;18.13;86.32
21730;BME280;11027;51.030;13.812;2023-09-19T04:38:18;99570.50;;;18.12;86.12
21730;BME280;11027;51.030;13.812;2023-09-19T04:40:44;99577.06;;;18.11;85.43
21730;BME280;11027;51.030;13.812;2023-09-19T04:43:09;99579.25;;;18.09;85.00
21730;BME280;11027;51.030;13.812;2023-09-19T04:45:34;99597.47;;;18.10;84.97
21730;BME280;11027;51.030;13.812;2023-09-19T04:47:59;99580.94;;;18.10;84.52
21730;BME280;11027;51.030;13.812;2023-09-19T04:50:25;99599.13;;;18.11;84.29
21730;BME280;11027;51.030;13.812;2023-09-19T04:52:53;99595.31;;;18.12;84.06
21730;BME280;11027;51.030;13.812;2023-09-19T04:55:19;99600.81;;;18.12;83.92
21730;BME280;11027;51.030;13.812;2023-09-19T04:57:48;99601.28;;;18.09;83.68
21730;BME280;11027;51.030;13.812;2023-09-19T05:00:16;99599.63;;;18.08;83.88
21730;BME280;11027;51.030;13.812;2023-09-19T05:02:43;99610.66;;;18.08;83.54
21730;BME280;11027;51.030;13.812;2023-09-19T05:05:19;99617.81;;;18.09;83.40
21730;BME280;11027;51.030;13.812;2023-09-19T05:07:45;99617.81;;;18.09;83.25
21730;BME280;11027;51.030;13.812;2023-09-19T05:10:11;99628.63;;;18.11;82.62
21730;BME280;11027;51.030;13.812;2023-09-19T05:12:38;99627.28;;;18.13;82.86
21730;BME280;11027;51.030;13.812;2023-09-19T05:15:06;99632.91;;;18.18;82.49
21730;BME280;11027;51.030;13.812;2023-09-19T05:17:33;99630.75;;;18.21;82.65
21730;BME280;11027;51.030;13.812;2023-09-19T05:19:59;99641.28;;;18.24;82.85
21730;BME280;11027;51.030;13.812;2023-09-19T05:22:28;99636.88;;;18.23;83.42
21730;BME280;11027;51.030;13.812;2023-09-19T05:24:54;99643.44;;;18.22;83.64
21730;BME280;11027;51.030;13.812;2023-09-19T05:27:19;99646.47;;;18.20;84.08
21730;BME280;11027;51.030;13.812;2023-09-19T05:29:46;99639.50;;;18.17;84.45
21730;BME280;11027;51.030;13.812;2023-09-19T05:32:11;99647.16;;;18.15;84.80
21730;BME280;11027;51.030;13.812;2023-09-19T05:34:37;99658.19;;;18.15;85.25
21730;BME280;11027;51.030;13.812;2023-09-19T05:37:03;99649.84;;;18.10;85.08
21730;BME280;11027;51.030;13.812;2023-09-19T05:39:29;99649.59;;;18.12;84.94
21730;BME280;11027;51.030;13.812;2023-09-19T05:41:54;99647.91;;;18.11;85.49
21730;BME280;11027;51.030;13.812;2023-09-19T05:44:20;99651.03;;;18.14;85.14
21730;BME280;11027;51.030;13.812;2023-09-19T05:46:45;99650.78;;;18.16;85.38
21730;BME280;11027;51.030;13.812;2023-09-19T05:49:13;99648.63;;;18.18;85.16
21730;BME280;11027;51.030;13.812;2023-09-19T05:51:38;99656.16;;;18.23;85.19
21730;BME280;11027;51.030;13.812;2023-09-19T05:54:03;99653.16;;;18.24;84.84
21730;BME280;11027;51.030;13.812;2023-09-19T05:56:30;99666.69;;;18.26;84.25
21730;BME280;11027;51.030;13.812;2023-09-19T05:58:56;99664.53;;;18.28;83.43
21730;BME280;11027;51.030;13.812;2023-09-19T06:01:21;99670.03;;;18.28;83.13
21730;BME280;11027;51.030;13.812;2023-09-19T06:03:47;99668.13;;;18.28;82.57
21730;BME280;11027;51.030;13.812;2023-09-19T06:06:13;99665.38;;;18.28;81.70
21730;BME280;11027;51.030;13.812;2023-09-19T06:08:39;99667.41;;;18.33;81.63
21730;BME280;11027;51.030;13.812;2023-09-19T06:11:04;99664.03;;;18.31;80.52
21730;BME280;11027;51.030;13.812;2023-09-19T06:13:32;99666.06;;;18.35;80.81
21730;BME280;11027;51.030;13.812;2023-09-19T06:15:58;99675.28;;;18.41;80.62
21730;BME280;11027;51.030;13.812;2023-09-19T06:18:28;99678.63;;;18.43;80.16
21730;BME280;11027;51.030;13.812;2023-09-19T06:20:54;99682.81;;;18.46;79.71
21730;BME280;11027;51.030;13.812;2023-09-19T06:23:20;99686.16;;;18.48;79.89
21730;BME280;11027;51.030;13.812;2023-09-19T06:25:46;99679.81;;;18.47;79.21
21730;BME280;11027;51.030;13.812;2023-09-19T06:28:11;99697.56;;;18.51;78.66
21730;BME280;11027;51.030;13.812;2023-09-19T06:30:39;99693.22;;;18.55;78.80
21730;BME280;11027;51.030;13.812;2023-09-19T06:33:05;99707.63;;;18.57;78.08
21730;BME280;11027;51.030;13.812;2023-09-19T06:35:33;99703.78;;;18.58;77.92
21730;BME280;11027;51.030;13.812;2023-09-19T06:37:58;99716.47;;;18.59;77.79
21730;BME280;11027;51.030;13.812;2023-09-19T06:40:23;99704.25;;;18.55;76.80
21730;BME280;11027;51.030;13.812;2023-09-19T06:42:53;99711.72;;;18.55;76.92
21730;BME280;11027;51.030;13.812;2023-09-19T06:45:19;99715.06;;;18.57;77.11
21730;BME280;11027;51.030;13.812;2023-09-19T06:47:48;99727.16;;;18.56;77.13
21730;BME280;11027;51.030;13.812;2023-09-19T06:50:19;99728.03;;;18.56;77.42
21730;BME280;11027;51.030;13.812;2023-09-19T06:52:47;99724.16;;;18.57;77.37
21730;BME280;11027;51.030;13.812;2023-09-19T06:55:15;99738.56;;;18.59;77.19
21730;BME280;11027;51.030;13.812;2023-09-19T06:57:44;99740.25;;;18.61;77.17
21730;BME280;11027;51.030;13.812;2023-09-19T07:00:10;99738.06;;;18.63;77.38
21730;BME280;11027;51.030;13.812;2023-09-19T07:02:41;99742.03;;;18.67;76.62
21730;BME280;11027;51.030;13.812;2023-09-19T07:05:07;99742.13;;;18.72;76.59
21730;BME280;11027;51.030;13.812;2023-09-19T07:07:32;99748.00;;;18.75;76.32
21730;BME280;11027;51.030;13.812;2023-09-19T07:10:00;99754.72;;;18.79;76.50
21730;BME280;11027;51.030;13.812;2023-09-19T07:12:25;99748.56;;;18.89;76.12
21730;BME280;11027;51.030;13.812;2023-09-19T07:14:51;99751.53;;;18.99;75.65
21730;BME280;11027;51.030;13.812;2023-09-19T07:17:16;99758.00;;;19.05;75.20
21730;BME280;11027;51.030;13.812;2023-09-19T07:19:44;99772.75;;;19.11;74.34
21730;BME280;11027;51.030;13.812;2023-09-19T07:22:09;99776.09;;;19.13;73.53
21730;BME280;11027;51.030;13.812;2023-09-19T07:24:34;99773.94;;;19.15;72.52
21730;BME280;11027;51.030;13.812;2023-09-19T07:27:02;99789.97;;;19.18;72.10
21730;BME280;11027;51.030;13.812;2023-09-19T07:29:27;99791.16;;;19.22;70.56
21730;BME280;11027;51.030;13.812;2023-09-19T07:31:52;99790.19;;;19.28;70.19
21730;BME280;11027;51.030;13.812;2023-09-19T07:34:18;99788.13;;;19.35;70.10
21730;BME280;11027;51.030;13.812;2023-09-19T07:36:43;99786.03;;;19.43;69.86
21730;BME280;11027;51.030;13.812;2023-09-19T07:39:09;99790.22;;;19.45;68.91
21730;BME280;11027;51.030;13.812;2023-09-19T07:41:34;99788.69;;;19.37;67.27
21730;BME280;11027;51.030;13.812;2023-09-19T07:43:59;99799.56;;;19.27;67.00
21730;BME280;11027;51.030;13.812;2023-09-19T07:46:24;99804.97;;;19.22;67.35
21730;BME280;11027;51.030;13.812;2023-09-19T07:48:51;99809.06;;;19.19;65.77
21730;BME280;11027;51.030;13.812;2023-09-19T07:51:16;99813.75;;;19.19;66.21
21730;BME280;11027;51.030;13.812;2023-09-19T07:53:42;99814.94;;;19.23;66.69
21730;BME280;11027;51.030;13.812;2023-09-19T07:56:09;99804.50;;;19.25;66.04
21730;BME280;11027;51.030;13.812;2023-09-19T07:58:35;99813.09;;;19.29;66.31
21730;BME280;11027;51.030;13.812;2023-09-19T08:01:05;99813.44;;;19.32;66.31
21730;BME280;11027;51.030;13.812;2023-09-19T08:03:32;99816.81;;;19.34;65.82
21730;BME280;11027;51.030;13.812;2023-09-19T08:05:57;99815.97;;;19.34;64.71
21730;BME280;11027;51.030;13.812;2023-09-19T08:08:26;99815.38;;;19.32;63.61
21730;BME280;11027;51.030;13.812;2023-09-19T08:10:55;99803.97;;;19.28;63.46
21730;BME280;11027;51.030;13.812;2023-09-19T08:13:24;99817.31;;;19.31;64.34
21730;BME280;11027;51.030;13.812;2023-09-19T08:15:50;99821.84;;;19.37;64.35
21730;BME280;11027;51.030;13.812;2023-09-19T08:18:16;99810.63;;;19.44;64.48
21730;BME280;11027;51.030;13.812;2023-09-19T08:20:42;99814.34;;;19.50;63.54
21730;BME280;11027;51.030;13.812;2023-09-19T08:23:08;99839.78;;;19.52;62.90
21730;BME280;11027;51.030;13.812;2023-09-19T08:25:33;99819.13;;;19.54;62.15
21730;BME280;11027;51.030;13.812;2023-09-19T08:27:59;99817.19;;;19.55;62.13
21730;BME280;11027;51.030;13.812;2023-09-19T08:30:27;99818.88;;;19.56;62.53
21730;BME280;11027;51.030;13.812;2023-09-19T08:32:59;99815.53;;;19.54;62.27
21730;BME280;11027;51.030;13.812;2023-09-19T08:35:25;99825.47;;;19.55;61.37
21730;BME280;11027;51.030;13.812;2023-09-19T08:37:50;99827.16;;;19.56;61.51
21730;BME280;11027;51.030;13.812;2023-09-19T08:40:16;99846.09;;;19.64;61.79
21730;BME280;11027;51.030;13.812;2023-09-19T08:42:53;99821.34;;;19.69;60.61
21730;BME280;11027;51.030;13.812;2023-09-19T08:45:23;99819.25;;;19.76;61.08
21730;BME280;11027;51.030;13.812;2023-09-19T08:48:23;99831.19;;;19.94;60.17
21730;BME280;11027;51.030;13.812;2023-09-19T08:51:02;99847.94;;;20.04;59.35
21730;BME280;11027;51.030;13.812;2023-09-19T08:56:26;99843.25;;;19.88;59.34
21730;BME280;11027;51.030;13.812;2023-09-19T08:58:57;99850.84;;;19.81;59.14
21730;BME280;11027;51.030;13.812;2023-09-19T09:01:23;99844.06;;;19.71;59.71
21730;BME280;11027;51.030;13.812;2023-09-19T09:03:56;99841.16;;;19.66;59.94
21730;BME280;11027;51.030;13.812;2023-09-19T09:06:23;99839.22;;;19.67;60.24
21730;BME280;11027;51.030;13.812;2023-09-19T09:08:50;99847.41;;;19.73;60.71
21730;BME280;11027;51.030;13.812;2023-09-19T09:11:17;99841.13;;;19.78;60.64
21730;BME280;11027;51.030;13.812;2023-09-19T09:13:46;99842.06;;;19.84;60.43
21730;BME280;11027;51.030;13.812;2023-09-19T09:16:12;99855.06;;;20.00;60.02
21730;BME280;11027;51.030;13.812;2023-09-19T09:18:39;99852.47;;;20.10;58.82
21730;BME280;11027;51.030;13.812;2023-09-19T09:21:04;99841.41;;;20.10;57.63
21730;BME280;11027;51.030;13.812;2023-09-19T09:23:30;99844.22;;;20.15;58.08
21730;BME280;11027;51.030;13.812;2023-09-19T09:25:57;99838.03;;;20.25;57.95
21730;BME280;11027;51.030;13.812;2023-09-19T09:28:27;99825.13;;;20.31;56.50
21730;BME280;11027;51.030;13.812;2023-09-19T09:30:56;99833.00;;;20.39;56.90
21730;BME280;11027;51.030;13.812;2023-09-19T09:33:23;99840.66;;;20.54;56.15
21730;BME280;11027;51.030;13.812;2023-09-19T09:35:57;99843.03;;;20.62;55.02
21730;BME280;11027;51.030;13.812;2023-09-19T09:38:27;99837.91;;;20.71;55.19
21730;BME280;11027;51.030;13.812;2023-09-19T09:40:55;99841.31;;;20.78;55.13
21730;BME280;11027;51.030;13.812;2023-09-19T09:43:35;99831.09;;;20.78;54.80
21730;BME280;11027;51.030;13.812;2023-09-19T09:46:14;99845.38;;;20.70;55.73
21730;BME280;11027;51.030;13.812;2023-09-19T09:51:43;99861.47;;;20.56;56.31
21730;BME280;11027;51.030;13.812;2023-09-19T09:54:13;99856.44;;;20.53;56.53
21730;BME280;11027;51.030;13.812;2023-09-19T09:56:56;99855.81;;;20.46;56.00
21730;BME280;11027;51.030;13.812;2023-09-19T10:02:09;99847.94;;;20.38;56.46
21730;BME280;11027;51.030;13.812;2023-09-19T10:04:38;99860.56;;;20.34;56.49
21730;BME280;11027;51.030;13.812;2023-09-19T10:07:30;99863.50;;;20.27;56.80
21730;BME280;11027;51.030;13.812;2023-09-19T10:10:04;99855.28;;;20.15;57.18
21730;BME280;11027;51.030;13.812;2023-09-19T10:12:47;99849.75;;;20.15;57.12
21730;BME280;11027;51.030;13.812;2023-09-19T10:15:15;99860.69;;;20.22;57.07
21730;BME280;11027;51.030;13.812;2023-09-19T10:17:43;99859.97;;;20.32;56.84
21730;BME280;11027;51.030;13.812;2023-09-19T10:20:12;99855.13;;;20.39;56.63
21730;BME280;11027;51.030;13.812;2023-09-19T10:22:48;99863.50;;;20.44;56.19
21730;BME280;11027;51.030;13.812;2023-09-19T10:25:25;99844.22;;;20.49;56.27
21730;BME280;11027;51.030;13.812;2023-09-19T10:27:52;99852.06;;;20.57;56.65
21730;BME280;11027;51.030;13.812;2023-09-19T10:30:19;99845.56;;;20.64;56.83
21730;BME280;11027;51.030;13.812;2023-09-19T10:32:46;99847.06;;;20.71;56.24
21730;BME280;11027;51.030;13.812;2023-09-19T10:35:14;99853.50;;;20.77;56.24
21730;BME280;11027;51.030;13.812;2023-09-19T10:37:40;99857.44;;;20.81;56.00
21730;BME280;11027;51.030;13.812;2023-09-19T10:40:07;99848.53;;;20.79;55.59
21730;BME280;11027;51.030;13.812;2023-09-19T10:42:35;99848.53;;;20.79;55.79
21730;BME280;11027;51.030;13.812;2023-09-19T10:45:03;99843.25;;;20.77;55.71
21730;BME280;11027;51.030;13.812;2023-09-19T10:47:33;99846.41;;;20.86;55.95
21730;BME280;11027;51.030;13.812;2023-09-19T10:49:58;99855.38;;;20.93;55.26
21730;BME280;11027;51.030;13.812;2023-09-19T10:52:25;99862.66;;;21.00;54.66
21730;BME280;11027;51.030;13.812;2023-09-19T10:54:53;99857.44;;;21.03;54.33
21730;BME280;11027;51.030;13.812;2023-09-19T10:57:23;99864.06;;;21.02;53.05
21730;BME280;11027;51.030;13.812;2023-09-19T11:00:05;99858.03;;;21.05;52.59
21730;BME280;11027;51.030;13.812;2023-09-19T11:06:16;99869.56;;;21.19;51.80
21730;BME280;11027;51.030;13.812;2023-09-19T11:08:58;99844.78;;;21.34;51.85
21730;BME280;11027;51.030;13.812;2023-09-19T11:11:48;99885.75;;;21.49;50.96
21730;BME280;11027;51.030;13.812;2023-09-19T11:17:35;99844.41;;;21.75;48.30
21730;BME280;11027;51.030;13.812;2023-09-19T11:30:40;99836.84;;;21.97;46.81
21730;BME280;11027;51.030;13.812;2023-09-19T11:43:47;99819.50;;;22.45;44.92
21730;BME280;11027;51.030;13.812;2023-09-19T11:46:13;99833.41;;;22.50;44.02
21730;BME280;11027;51.030;13.812;2023-09-19T11:48:42;99838.19;;;22.60;43.28
21730;BME280;11027;51.030;13.812;2023-09-19T11:51:11;99837.03;;;22.55;42.18
21730;BME280;11027;51.030;13.812;2023-09-19T11:53:41;99822.59;;;22.53;42.94
21730;BME280;11027;51.030;13.812;2023-09-19T11:56:09;99839.88;;;22.66;43.29
21730;BME280;11027;51.030;13.812;2023-09-19T11:58:36;99835.81;;;22.79;42.96
21730;BME280;11027;51.030;13.812;2023-09-19T12:01:04;99831.13;;;22.89;42.34
21730;BME280;11027;51.030;13.812;2023-09-19T12:03:35;99829.53;;;22.99;42.19
21730;BME280;11027;51.030;13.812;2023-09-19T12:06:11;99838.94;;;22.97;42.57
21730;BME280;11027;51.030;13.812;2023-09-19T12:08:39;99833.38;;;22.97;43.03
21730;BME280;11027;51.030;13.812;2023-09-19T12:11:05;99818.91;;;22.90;43.23
21730;BME280;11027;51.030;13.812;2023-09-19T12:13:33;99820.31;;;22.98;43.34
21730;BME280;11027;51.030;13.812;2023-09-19T12:16:00;99825.69;;;23.10;43.39
21730;BME280;11027;51.030;13.812;2023-09-19T12:18:29;99817.38;;;23.15;43.63
21730;BME280;11027;51.030;13.812;2023-09-19T12:20:55;99825.72;;;23.15;44.30
21730;BME280;11027;51.030;13.812;2023-09-19T12:23:21;99820.06;;;23.00;43.43
21730;BME280;11027;51.030;13.812;2023-09-19T12:25:46;99823.06;;;22.88;44.06
21730;BME280;11027;51.030;13.812;2023-09-19T12:28:12;99829.44;;;22.88;44.82
21730;BME280;11027;51.030;13.812;2023-09-19T12:30:38;99823.44;;;23.02;44.53
21730;BME280;11027;51.030;13.812;2023-09-19T12:33:15;99825.16;;;23.13;44.94
21730;BME280;11027;51.030;13.812;2023-09-19T12:35:40;99823.22;;;23.19;45.85
21730;BME280;11027;51.030;13.812;2023-09-19T12:38:05;99824.63;;;23.21;46.05
21730;BME280;11027;51.030;13.812;2023-09-19T12:40:33;99827.94;;;23.18;45.71
21730;BME280;11027;51.030;13.812;2023-09-19T12:43:01;99820.16;;;23.20;45.43
21730;BME280;11027;51.030;13.812;2023-09-19T12:45:30;99822.97;;;23.25;45.47
21730;BME280;11027;51.030;13.812;2023-09-19T12:51:10;99815.81;;;23.55;45.33
21730;BME280;11027;51.030;13.812;2023-09-19T12:53:39;99817.50;;;23.66;45.35
21730;BME280;11027;51.030;13.812;2023-09-19T12:56:09;99824.19;;;23.70;44.98
21730;BME280;11027;51.030;13.812;2023-09-19T13:01:25;99822.56;;;24.10;44.11
21730;BME280;11027;51.030;13.812;2023-09-19T13:06:43;99814.09;;;24.87;42.84
21730;BME280;11027;51.030;13.812;2023-09-19T13:09:10;99811.56;;;25.51;41.21
21730;BME280;11027;51.030;13.812;2023-09-19T13:11:36;99801.88;;;26.17;39.56
21730;BME280;11027;51.030;13.812;2023-09-19T13:14:17;99810.47;;;26.26;39.71
21730;BME280;11027;51.030;13.812;2023-09-19T13:19:49;99802.50;;;27.34;37.68
21730;BME280;11027;51.030;13.812;2023-09-19T13:25:07;99797.44;;;28.59;34.92
21730;BME280;11027;51.030;13.812;2023-09-19T13:27:33;99809.56;;;27.51;36.34
21730;BME280;11027;51.030;13.812;2023-09-19T13:29:59;99798.28;;;26.70;37.19
21730;BME280;11027;51.030;13.812;2023-09-19T13:32:24;99813.97;;;26.66;37.88
21730;BME280;11027;51.030;13.812;2023-09-19T13:34:50;99803.84;;;27.18;37.66
21730;BME280;11027;51.030;13.812;2023-09-19T13:37:16;99793.41;;;27.05;37.57
21730;BME280;11027;51.030;13.812;2023-09-19T13:39:43;99803.47;;;26.28;38.23
21730;BME280;11027;51.030;13.812;2023-09-19T13:42:13;99792.75;;;25.67;38.94
21730;BME280;11027;51.030;13.812;2023-09-19T13:44:38;99804.75;;;25.23;39.63
21730;BME280;11027;51.030;13.812;2023-09-19T13:47:03;99805.72;;;24.82;40.27
21730;BME280;11027;51.030;13.812;2023-09-19T13:49:34;99807.50;;;25.33;40.23
21730;BME280;11027;51.030;13.812;2023-09-19T13:52:00;99796.16;;;26.62;39.36
21730;BME280;11027;51.030;13.812;2023-09-19T13:54:26;99802.03;;;28.03;36.65
21730;BME280;11027;51.030;13.812;2023-09-19T13:56:51;99795.47;;;28.27;34.47